Time;durP1;ratioP1;P1;durP2;ratioP2;P2;SDS_P1;SDS_P2;PMS_P1;PMS_P2;Temp;Humidity;BMP_temperature;BMP_pressure;BME280_temperature;BME280_humidity;BME280_pressure;Samples;Min_cycle;Max_cycle;Signal;HPM_P1;HPM_P2
2021/01/02 00:01:46;;;;;;;102.83;55.70;;;;;;;;;;4402561;32;20307;-58
2021/01/02 00:04:31;;;;;;;135.30;69.97;;;;;;;;;;4403780;32;20256;-58
2021/01/02 00:07:29;;;;;;;139.93;74.63;;;;;;;;;;4403921;32;20197;-58
2021/01/02 00:09:59;;;;;;;130.80;67.23;;;;;;;;;;4373665;32;20832;-58
2021/01/02 00:12:55;;;;;;;109.83;58.70;;;;;;;;;;4403778;32;20602;-56
2021/01/02 00:15:33;;;;;;;84.57;44.13;;;;;;;;;;4403645;32;20509;-58
2021/01/02 00:18:01;;;;;;;73.33;41.40;;;;;;;;;;4403614;32;20197;-58
2021/01/02 00:20:41;;;;;;;73.80;39.10;;;;;;;;;;4402128;32;20256;-58
2021/01/02 00:23:22;;;;;;;74.93;40.63;;;;;;;;;;4403271;32;20213;-58
2021/01/02 00:25:59;;;;;;;79.83;44.70;;;;;;;;;;4403279;32;20198;-57
2021/01/02 00:28:31;;;;;;;87.13;45.43;;;;;;;;;;4403414;32;20413;-58
2021/01/02 00:30:59;;;;;;;92.40;41.70;;;;;;;;;;4401853;32;20271;-57
2021/01/02 00:33:50;;;;;;;78.23;40.23;;;;;;;;;;4403284;32;20396;-57
2021/01/02 00:37:00;;;;;;;69.07;35.20;;;;;;;;;;4401763;32;20260;-58
2021/01/02 00:40:10;;;;;;;66.13;33.77;;;;;;;;;;4386983;32;20259;-58
2021/01/02 00:42:38;;;;;;;72.87;38.73;;;;;;;;;;4342305;32;20381;-58
2021/01/02 00:45:06;;;;;;;69.77;38.67;;;;;;;;;;4355254;32;20272;-58
2021/01/02 00:47:34;;;;;;;66.20;36.87;;;;;;;;;;4370578;32;20283;-58
2021/01/02 00:50:01;;;;;;;74.20;38.47;;;;;;;;;;4402950;32;20296;-57
2021/01/02 00:52:45;;;;;;;75.93;38.40;;;;;;;;;;4403190;32;20212;-58
2021/01/02 00:55:22;;;;;;;69.00;37.17;;;;;;;;;;4417678;32;20270;-57
2021/01/02 00:58:22;;;;;;;73.77;38.80;;;;;;;;;;4418018;32;20212;-57
2021/01/02 01:00:57;;;;;;;68.53;38.20;;;;;;;;;;4417926;32;20535;-57
2021/01/02 01:03:28;;;;;;;66.00;37.33;;;;;;;;;;4418174;32;20200;-57
2021/01/02 01:05:55;;;;;;;71.07;36.83;;;;;;;;;;4418076;32;20630;-57
2021/01/02 01:08:25;;;;;;;65.87;35.83;;;;;;;;;;4417573;32;20209;-57
2021/01/02 01:10:50;;;;;;;69.63;38.73;;;;;;;;;;4417779;32;20259;-57
2021/01/02 01:13:23;;;;;;;80.60;42.23;;;;;;;;;;4417817;32;20283;-58
2021/01/02 01:15:50;;;;;;;73.93;36.50;;;;;;;;;;4417718;32;20293;-58
2021/01/02 01:18:28;;;;;;;58.27;30.40;;;;;;;;;;4417524;32;20217;-57
2021/01/02 01:20:56;;;;;;;60.90;33.20;;;;;;;;;;4417661;32;20228;-56
2021/01/02 01:23:50;;;;;;;66.43;38.13;;;;;;;;;;4417810;32;20239;-57
2021/01/02 01:26:30;;;;;;;85.17;45.40;;;;;;;;;;4417653;32;20227;-58
2021/01/02 01:28:57;;;;;;;81.37;44.13;;;;;;;;;;4416039;32;20685;-58
2021/01/02 01:31:23;;;;;;;84.97;45.17;;;;;;;;;;4416404;32;20229;-58
2021/01/02 01:33:56;;;;;;;102.47;53.43;;;;;;;;;;4417498;32;20276;-58
2021/01/02 01:36:30;;;;;;;96.80;50.70;;;;;;;;;;4417906;32;20528;-58
2021/01/02 01:38:56;;;;;;;79.23;46.97;;;;;;;;;;4417312;32;20651;-57
2021/01/02 01:41:34;;;;;;;80.90;46.37;;;;;;;;;;4417633;32;20201;-57
2021/01/02 01:44:08;;;;;;;71.27;39.70;;;;;;;;;;4417399;32;20241;-57
2021/01/02 01:46:35;;;;;;;76.30;40.97;;;;;;;;;;4416355;32;20388;-57
2021/01/02 01:49:06;;;;;;;73.97;41.07;;;;;;;;;;4417347;32;20326;-58
2021/01/02 01:51:57;;;;;;;80.97;43.90;;;;;;;;;;4417044;32;20232;-57
2021/01/02 01:54:25;;;;;;;91.27;50.50;;;;;;;;;;4404035;32;20318;-57
2021/01/02 01:56:51;;;;;;;90.97;46.50;;;;;;;;;;4402378;32;20691;-58
2021/01/02 01:59:19;;;;;;;88.07;45.80;;;;;;;;;;4401989;32;20238;-57
2021/01/02 02:01:48;;;;;;;85.10;43.73;;;;;;;;;;4402118;32;20209;-57
2021/01/02 02:04:41;;;;;;;77.83;43.53;;;;;;;;;;4402047;32;20224;-57
2021/01/02 02:07:14;;;;;;;88.83;47.17;;;;;;;;;;4400650;32;20267;-57
2021/01/02 02:09:42;;;;;;;87.80;46.57;;;;;;;;;;4401797;32;20225;-57
2021/01/02 02:12:22;;;;;;;86.97;48.20;;;;;;;;;;4401847;32;20217;-58
2021/01/02 02:15:02;;;;;;;89.07;48.37;;;;;;;;;;4400618;32;20256;-58
2021/01/02 02:17:37;;;;;;;83.30;47.50;;;;;;;;;;4401992;32;20228;-57
2021/01/02 02:20:10;;;;;;;85.77;47.20;;;;;;;;;;4400736;32;20331;-57
2021/01/02 02:22:37;;;;;;;91.13;48.00;;;;;;;;;;4400412;32;20275;-57
2021/01/02 02:25:06;;;;;;;99.93;50.40;;;;;;;;;;4401615;32;20229;-57
2021/01/02 02:27:35;;;;;;;115.73;62.37;;;;;;;;;;4401602;32;20217;-57
2021/01/02 02:30:09;;;;;;;106.93;54.63;;;;;;;;;;4400393;32;20558;-57
2021/01/02 02:32:44;;;;;;;103.03;52.53;;;;;;;;;;4401936;32;20326;-57
2021/01/02 02:35:12;;;;;;;87.67;49.37;;;;;;;;;;4402236;32;20247;-58
2021/01/02 02:37:39;;;;;;;119.10;57.63;;;;;;;;;;4388124;32;20544;-57
2021/01/02 02:40:08;;;;;;;97.80;51.07;;;;;;;;;;4401861;32;20426;-57
2021/01/02 02:42:36;;;;;;;82.43;45.07;;;;;;;;;;4400421;32;20249;-57
2021/01/02 02:45:02;;;;;;;61.10;33.30;;;;;;;;;;4401550;32;20225;-58
2021/01/02 02:47:31;;;;;;;50.97;26.70;;;;;;;;;;4401906;32;20295;-58
2021/01/02 02:49:58;;;;;;;92.33;47.83;;;;;;;;;;4388194;32;20403;-57
2021/01/02 02:52:42;;;;;;;54.27;31.00;;;;;;;;;;4401579;32;20263;-57
2021/01/02 02:55:08;;;;;;;59.20;30.20;;;;;;;;;;4401545;32;20315;-57
2021/01/02 02:57:39;;;;;;;63.07;36.17;;;;;;;;;;4401876;32;20235;-57
2021/01/02 03:00:05;;;;;;;89.57;46.43;;;;;;;;;;4400812;32;20328;-57
2021/01/02 03:02:33;;;;;;;93.37;51.53;;;;;;;;;;4401678;32;20320;-58
2021/01/02 03:04:59;;;;;;;96.20;50.40;;;;;;;;;;4401368;32;20263;-58
2021/01/02 03:07:25;;;;;;;95.83;49.60;;;;;;;;;;4404877;32;20315;-58
2021/01/02 03:09:51;;;;;;;88.43;50.53;;;;;;;;;;4403310;32;20273;-58
2021/01/02 03:12:16;;;;;;;91.97;51.17;;;;;;;;;;4405060;32;20352;-58
2021/01/02 03:14:41;;;;;;;108.87;51.13;;;;;;;;;;4404687;32;20621;-58
2021/01/02 03:17:07;;;;;;;104.17;59.03;;;;;;;;;;4403353;32;20472;-58
2021/01/02 03:19:32;;;;;;;109.50;59.20;;;;;;;;;;4404745;32;20296;-58
2021/01/02 03:21:59;;;;;;;108.80;53.87;;;;;;;;;;4404370;32;20321;-58
2021/01/02 03:24:25;;;;;;;93.10;47.30;;;;;;;;;;4403231;32;20745;-58
2021/01/02 03:26:51;;;;;;;76.43;44.83;;;;;;;;;;4403218;32;20656;-58
2021/01/02 03:29:16;;;;;;;92.67;48.33;;;;;;;;;;4403037;32;20256;-58
2021/01/02 03:31:42;;;;;;;94.30;48.23;;;;;;;;;;4404481;32;20343;-58
2021/01/02 03:34:08;;;;;;;58.53;34.70;;;;;;;;;;4403066;32;20368;-58
2021/01/02 03:36:33;;;;;;;62.33;31.33;;;;;;;;;;4404318;32;20757;-58
2021/01/02 03:38:59;;;;;;;48.17;27.43;;;;;;;;;;4404515;32;20244;-57
2021/01/02 03:41:28;;;;;;;53.57;31.80;;;;;;;;;;4404382;32;20319;-60
2021/01/02 03:43:53;;;;;;;63.93;33.03;;;;;;;;;;4404319;32;20259;-58
2021/01/02 03:46:19;;;;;;;64.30;33.33;;;;;;;;;;4404344;32;20714;-58
2021/01/02 03:48:45;;;;;;;63.43;34.00;;;;;;;;;;4404087;32;20343;-57
2021/01/02 03:51:11;;;;;;;68.33;33.40;;;;;;;;;;4402819;32;20353;-58
2021/01/02 03:53:37;;;;;;;61.67;33.67;;;;;;;;;;4410604;32;20259;-57
2021/01/02 03:56:02;;;;;;;64.87;35.53;;;;;;;;;;4417818;32;20271;-57
2021/01/02 03:58:28;;;;;;;63.23;36.07;;;;;;;;;;4419469;32;20288;-57
2021/01/02 04:00:53;;;;;;;63.10;36.07;;;;;;;;;;4419645;32;20209;-57
2021/01/02 04:03:19;;;;;;;56.77;34.57;;;;;;;;;;4419694;32;20326;-57
2021/01/02 04:05:46;;;;;;;63.57;34.93;;;;;;;;;;4419224;32;20279;-57
2021/01/02 04:08:12;;;;;;;99.50;55.53;;;;;;;;;;4419529;32;20562;-57
2021/01/02 04:10:38;;;;;;;92.90;48.67;;;;;;;;;;4419072;32;20201;-57
2021/01/02 04:13:03;;;;;;;87.80;44.53;;;;;;;;;;4419109;32;20287;-56
2021/01/02 04:15:29;;;;;;;89.73;44.97;;;;;;;;;;4417752;32;20240;-57
2021/01/02 04:17:54;;;;;;;87.80;44.73;;;;;;;;;;4419135;32;20330;-57
2021/01/02 04:20:20;;;;;;;80.77;46.80;;;;;;;;;;4419181;32;20216;-57
2021/01/02 04:22:45;;;;;;;76.27;42.70;;;;;;;;;;4418952;32;20287;-57
2021/01/02 04:25:11;;;;;;;84.80;44.70;;;;;;;;;;4418965;32;20273;-56
2021/01/02 04:27:36;;;;;;;83.47;43.20;;;;;;;;;;4418849;32;20794;-59
2021/01/02 04:30:03;;;;;;;98.63;46.63;;;;;;;;;;4419088;32;20605;-56
2021/01/02 04:32:29;;;;;;;86.53;46.77;;;;;;;;;;4418543;32;20246;-56
2021/01/02 04:34:54;;;;;;;96.07;47.70;;;;;;;;;;4419025;32;20555;-57
2021/01/02 04:37:27;;;;;;;94.80;47.27;;;;;;;;;;4417495;32;20705;-57
2021/01/02 04:39:54;;;;;;;89.07;48.87;;;;;;;;;;4419006;32;20616;-57
2021/01/02 04:42:23;;;;;;;98.43;51.53;;;;;;;;;;4418521;32;20322;-57
2021/01/02 04:44:51;;;;;;;91.80;49.20;;;;;;;;;;4417296;32;20708;-57
2021/01/02 04:47:18;;;;;;;89.30;49.00;;;;;;;;;;4418747;32;20244;-58
2021/01/02 04:49:43;;;;;;;97.63;49.70;;;;;;;;;;4418439;32;20683;-57
2021/01/02 04:52:10;;;;;;;88.90;49.43;;;;;;;;;;4417267;32;20291;-57
2021/01/02 04:54:40;;;;;;;96.13;49.20;;;;;;;;;;4403092;32;20253;-58
2021/01/02 04:57:08;;;;;;;98.57;47.60;;;;;;;;;;4402125;32;20247;-57
2021/01/02 04:59:35;;;;;;;95.87;42.87;;;;;;;;;;4403156;32;20757;-57
2021/01/02 05:02:03;;;;;;;94.20;45.77;;;;;;;;;;4402026;32;20257;-58
2021/01/02 05:04:29;;;;;;;99.33;45.20;;;;;;;;;;4402190;32;20237;-57
2021/01/02 05:06:54;;;;;;;112.60;48.97;;;;;;;;;;4403637;32;20289;-58
2021/01/02 05:09:20;;;;;;;88.10;38.23;;;;;;;;;;4403460;32;20237;-58
2021/01/02 05:11:45;;;;;;;84.93;34.10;;;;;;;;;;4403346;32;20311;-58
2021/01/02 05:14:12;;;;;;;87.10;28.73;;;;;;;;;;4401956;32;20299;-58
2021/01/02 05:16:39;;;;;;;46.80;21.00;;;;;;;;;;4403630;32;20300;-58
2021/01/02 05:19:14;;;;;;;48.60;21.50;;;;;;;;;;4403155;32;20643;-57
2021/01/02 05:21:47;;;;;;;54.13;23.70;;;;;;;;;;4403614;32;20653;-58
2021/01/02 05:24:20;;;;;;;54.63;21.90;;;;;;;;;;4401988;32;20233;-57
2021/01/02 05:26:52;;;;;;;67.43;26.53;;;;;;;;;;4403015;32;20548;-58
2021/01/02 05:29:19;;;;;;;51.80;23.47;;;;;;;;;;4402859;32;20229;-57
2021/01/02 05:31:47;;;;;;;65.10;25.80;;;;;;;;;;4403134;32;20283;-57
2021/01/02 05:34:16;;;;;;;66.10;25.80;;;;;;;;;;4401530;32;20571;-57
2021/01/02 05:36:41;;;;;;;88.20;33.17;;;;;;;;;;4403203;32;20615;-58
2021/01/02 05:39:10;;;;;;;110.57;44.03;;;;;;;;;;4402920;32;20236;-57
2021/01/02 05:41:51;;;;;;;173.37;67.50;;;;;;;;;;4401887;32;20222;-58
2021/01/02 05:44:17;;;;;;;222.30;88.97;;;;;;;;;;4402799;32;20232;-58
2021/01/02 05:46:47;;;;;;;226.17;90.43;;;;;;;;;;4402804;32;20318;-57
2021/01/02 05:49:37;;;;;;;231.20;94.77;;;;;;;;;;4402584;32;20251;-57
2021/01/02 05:52:12;;;;;;;220.93;79.67;;;;;;;;;;4402609;32;20193;-58
2021/01/02 05:54:51;;;;;;;197.70;74.07;;;;;;;;;;4416324;32;20689;-57
2021/01/02 05:57:27;;;;;;;200.60;88.03;;;;;;;;;;4418024;32;20227;-58
2021/01/02 05:59:55;;;;;;;172.63;72.27;;;;;;;;;;4417463;32;20225;-57
2021/01/02 06:02:33;;;;;;;156.47;68.47;;;;;;;;;;4417844;32;20216;-57
2021/01/02 06:05:04;;;;;;;153.60;59.60;;;;;;;;;;4417571;32;20270;-57
2021/01/02 06:07:33;;;;;;;142.47;59.63;;;;;;;;;;4417683;32;20284;-56
2021/01/02 06:09:59;;;;;;;147.77;62.23;;;;;;;;;;4417686;32;20221;-57
2021/01/02 06:12:27;;;;;;;157.30;63.13;;;;;;;;;;4417856;32;20291;-58
2021/01/02 06:14:54;;;;;;;145.50;63.37;;;;;;;;;;4417761;32;20662;-57
2021/01/02 06:17:48;;;;;;;146.70;65.17;;;;;;;;;;4417557;32;20243;-57
2021/01/02 06:20:16;;;;;;;156.53;71.83;;;;;;;;;;4414126;32;20662;-57
2021/01/02 06:22:43;;;;;;;163.60;69.33;;;;;;;;;;4417768;32;20200;-58
2021/01/02 06:25:11;;;;;;;155.57;69.83;;;;;;;;;;4417462;32;20225;-57
2021/01/02 06:27:42;;;;;;;130.53;63.33;;;;;;;;;;4417399;32;20291;-57
2021/01/02 06:30:09;;;;;;;111.90;55.30;;;;;;;;;;4417415;32;20225;-57
2021/01/02 06:32:35;;;;;;;112.90;54.43;;;;;;;;;;4416318;32;20357;-58
2021/01/02 06:35:09;;;;;;;125.87;68.43;;;;;;;;;;4417149;32;20590;-57
2021/01/02 06:37:47;;;;;;;131.10;64.70;;;;;;;;;;4417791;32;20764;-57
2021/01/02 06:40:26;;;;;;;109.47;54.60;;;;;;;;;;4418920;32;20270;-57
2021/01/02 06:42:53;;;;;;;105.30;50.87;;;;;;;;;;4420529;32;20221;-57
2021/01/02 06:45:36;;;;;;;94.33;50.83;;;;;;;;;;4419023;32;20229;-57
2021/01/02 06:48:17;;;;;;;96.00;50.37;;;;;;;;;;4420503;32;20212;-57
2021/01/02 06:50:49;;;;;;;105.03;56.13;;;;;;;;;;4419090;32;20298;-57
2021/01/02 06:53:30;;;;;;;112.10;60.33;;;;;;;;;;4415240;32;20345;-58
2021/01/02 06:55:57;;;;;;;119.93;65.40;;;;;;;;;;4405120;32;20274;-58
2021/01/02 06:58:23;;;;;;;118.83;64.53;;;;;;;;;;4405459;32;20616;-57
2021/01/02 07:00:48;;;;;;;121.23;66.60;;;;;;;;;;4405004;32;20274;-57
2021/01/02 07:03:39;;;;;;;134.37;72.67;;;;;;;;;;4405455;32;20717;-57
2021/01/02 07:06:37;;;;;;;150.23;77.33;;;;;;;;;;4405291;32;20315;-57
2021/01/02 07:09:15;;;;;;;141.53;77.60;;;;;;;;;;4404583;32;20237;-58
2021/01/02 07:11:43;;;;;;;162.33;96.07;;;;;;;;;;4405539;32;20210;-58
2021/01/02 07:14:08;;;;;;;186.10;102.90;;;;;;;;;;4404863;32;20688;-57
2021/01/02 07:16:37;;;;;;;219.97;112.03;;;;;;;;;;4405281;32;20300;-57
2021/01/02 07:19:05;;;;;;;200.93;107.30;;;;;;;;;;4404845;32;20744;-58
2021/01/02 07:21:38;;;;;;;281.00;144.57;;;;;;;;;;4405272;32;20288;-58
2021/01/02 07:24:26;;;;;;;363.10;187.30;;;;;;;;;;4404868;32;20290;-57
2021/01/02 07:26:58;;;;;;;235.23;120.90;;;;;;;;;;4405056;32;20197;-58
2021/01/02 07:29:24;;;;;;;211.50;109.77;;;;;;;;;;4403516;32;20264;-57
2021/01/02 07:31:50;;;;;;;236.40;111.37;;;;;;;;;;4404865;32;20401;-57
2021/01/02 07:34:20;;;;;;;232.40;115.50;;;;;;;;;;4404711;32;20302;-57
2021/01/02 07:36:46;;;;;;;245.80;117.20;;;;;;;;;;4403276;32;20306;-58
2021/01/02 07:39:13;;;;;;;275.07;125.77;;;;;;;;;;4403453;32;20325;-57
2021/01/02 07:41:39;;;;;;;301.70;137.73;;;;;;;;;;4403270;32;20261;-58
2021/01/02 07:44:06;;;;;;;364.10;173.73;;;;;;;;;;4403512;32;20603;-57
2021/01/02 07:46:33;;;;;;;395.80;188.70;;;;;;;;;;4403156;32;20290;-57
2021/01/02 07:48:59;;;;;;;376.17;184.33;;;;;;;;;;4404618;32;20361;-57
2021/01/02 07:51:27;;;;;;;351.00;177.13;;;;;;;;;;4402763;32;20332;-57
2021/01/02 07:53:53;;;;;;;307.20;152.13;;;;;;;;;;4413470;32;20229;-56
2021/01/02 07:56:37;;;;;;;270.00;130.07;;;;;;;;;;4419215;32;20700;-57
2021/01/02 07:59:21;;;;;;;266.23;123.30;;;;;;;;;;4419529;32;20233;-57
2021/01/02 08:02:03;;;;;;;239.77;121.67;;;;;;;;;;4418008;32;20260;-57
2021/01/02 08:04:30;;;;;;;193.10;98.30;;;;;;;;;;4418521;32;20220;-57
2021/01/02 08:07:06;;;;;;;192.20;102.27;;;;;;;;;;4418956;32;20204;-57
2021/01/02 08:09:36;;;;;;;150.63;79.23;;;;;;;;;;4418132;32;20258;-57
2021/01/02 08:12:12;;;;;;;139.47;77.23;;;;;;;;;;4417746;32;20244;-57
2021/01/02 08:14:47;;;;;;;117.87;64.03;;;;;;;;;;4417843;32;20236;-56
2021/01/02 08:17:17;;;;;;;99.93;59.97;;;;;;;;;;4419173;32;20540;-56
2021/01/02 08:19:46;;;;;;;116.07;58.30;;;;;;;;;;4419026;32;20222;-56
2021/01/02 08:22:12;;;;;;;117.80;64.97;;;;;;;;;;4418844;32;20280;-56
2021/01/02 08:24:39;;;;;;;116.30;68.77;;;;;;;;;;4418826;32;20282;-56
2021/01/02 08:27:05;;;;;;;143.10;78.43;;;;;;;;;;4417248;32;20327;-56
2021/01/02 08:29:34;;;;;;;116.03;67.13;;;;;;;;;;4417267;32;20230;-55
2021/01/02 08:32:06;;;;;;;116.83;66.37;;;;;;;;;;4418538;32;20565;-56
2021/01/02 08:34:34;;;;;;;146.57;80.30;;;;;;;;;;4417201;32;20386;-55
2021/01/02 08:37:05;;;;;;;143.60;79.43;;;;;;;;;;4418367;32;20196;-56
2021/01/02 08:39:31;;;;;;;132.87;76.60;;;;;;;;;;4418296;32;20276;-56
2021/01/02 08:41:57;;;;;;;193.60;112.37;;;;;;;;;;4417048;32;20426;-56
2021/01/02 08:44:32;;;;;;;165.90;92.63;;;;;;;;;;4417981;32;20300;-56
2021/01/02 08:46:58;;;;;;;165.37;90.93;;;;;;;;;;4418065;32;20509;-56
2021/01/02 08:49:27;;;;;;;180.13;105.17;;;;;;;;;;4417923;32;20973;-56
2021/01/02 08:52:16;;;;;;;179.07;99.30;;;;;;;;;;4417737;32;20359;-56
2021/01/02 08:54:41;;;;;;;159.97;92.10;;;;;;;;;;4403481;32;20240;-57
2021/01/02 08:57:29;;;;;;;177.63;95.73;;;;;;;;;;4402683;32;20715;-58
2021/01/02 09:00:09;;;;;;;188.70;105.07;;;;;;;;;;4402923;32;20320;-56
2021/01/02 09:02:36;;;;;;;159.90;96.43;;;;;;;;;;4400520;32;20387;-56
2021/01/02 09:05:06;;;;;;;159.10;91.80;;;;;;;;;;4401490;32;20317;-57
2021/01/02 09:07:32;;;;;;;167.07;96.20;;;;;;;;;;4401167;32;20260;-57
2021/01/02 09:10:17;;;;;;;357.87;212.23;;;;;;;;;;4402540;32;20229;-57
2021/01/02 09:12:57;;;;;;;302.53;179.73;;;;;;;;;;4400886;32;20320;-58
2021/01/02 09:15:57;;;;;;;260.77;152.93;;;;;;;;;;4402641;32;20799;-57
2021/01/02 09:18:25;;;;;;;224.13;123.73;;;;;;;;;;4402289;32;20563;-57
2021/01/02 09:20:51;;;;;;;152.03;90.17;;;;;;;;;;4402232;32;20213;-56
2021/01/02 09:23:31;;;;;;;86.77;54.67;;;;;;;;;;4400908;32;20338;-56
2021/01/02 09:25:57;;;;;;;85.30;51.53;;;;;;;;;;4402321;32;20216;-56
2021/01/02 09:28:23;;;;;;;74.07;45.77;;;;;;;;;;4402245;32;20329;-56
2021/01/02 09:30:50;;;;;;;67.13;43.33;;;;;;;;;;4402049;32;20202;-57
2021/01/02 09:33:16;;;;;;;57.27;33.23;;;;;;;;;;4402160;32;20529;-56
2021/01/02 09:35:43;;;;;;;64.53;35.03;;;;;;;;;;4401690;32;20255;-56
2021/01/02 09:38:09;;;;;;;42.27;26.33;;;;;;;;;;4388216;32;20255;-56
2021/01/02 09:40:40;;;;;;;45.03;24.97;;;;;;;;;;4401760;32;20400;-55
2021/01/02 09:43:07;;;;;;;57.33;31.47;;;;;;;;;;4402010;32;20229;-56
2021/01/02 09:45:33;;;;;;;194.13;96.27;;;;;;;;;;4401665;32;20296;-55
2021/01/02 09:47:59;;;;;;;103.57;55.63;;;;;;;;;;4401857;32;20240;-55
2021/01/02 09:50:24;;;;;;;72.10;40.47;;;;;;;;;;4402106;32;20346;-56
2021/01/02 09:52:50;;;;;;;93.07;51.40;;;;;;;;;;4404929;32;20516;-55
2021/01/02 09:55:16;;;;;;;79.30;40.90;;;;;;;;;;4418303;32;20295;-56
2021/01/02 09:57:42;;;;;;;63.70;36.93;;;;;;;;;;4417160;32;20295;-56
2021/01/02 10:00:09;;;;;;;86.97;48.67;;;;;;;;;;4418088;32;20225;-55
2021/01/02 10:02:35;;;;;;;73.57;42.00;;;;;;;;;;4416893;32;20280;-56
2021/01/02 10:05:00;;;;;;;79.33;45.93;;;;;;;;;;4418205;32;20703;-56
2021/01/02 10:07:26;;;;;;;78.83;44.70;;;;;;;;;;4418250;32;20220;-55
2021/01/02 10:09:52;;;;;;;75.93;44.17;;;;;;;;;;4418016;32;20289;-55
2021/01/02 10:12:19;;;;;;;106.93;55.70;;;;;;;;;;4416875;32;20244;-55
2021/01/02 10:14:46;;;;;;;84.13;48.70;;;;;;;;;;4418170;32;20370;-56
2021/01/02 10:17:13;;;;;;;83.67;46.23;;;;;;;;;;4418198;32;20263;-55
2021/01/02 10:19:44;;;;;;;85.73;52.33;;;;;;;;;;4417783;32;20252;-55
2021/01/02 10:22:10;;;;;;;99.47;51.13;;;;;;;;;;4418076;32;20192;-56
2021/01/02 10:24:36;;;;;;;75.07;46.13;;;;;;;;;;4418175;32;20236;-56
2021/01/02 10:27:02;;;;;;;143.10;76.80;;;;;;;;;;4418289;32;20270;-56
2021/01/02 10:29:27;;;;;;;95.93;55.13;;;;;;;;;;4417912;32;20225;-55
2021/01/02 10:31:58;;;;;;;83.83;48.63;;;;;;;;;;4418083;32;20296;-56
2021/01/02 10:34:23;;;;;;;75.90;46.60;;;;;;;;;;4416386;32;20259;-55
2021/01/02 10:36:49;;;;;;;72.00;41.70;;;;;;;;;;4417761;32;20342;-55
2021/01/02 10:39:14;;;;;;;53.67;28.97;;;;;;;;;;4416131;32;20841;-55
2021/01/02 10:41:40;;;;;;;92.10;53.23;;;;;;;;;;4417634;32;20288;-54
2021/01/02 10:44:06;;;;;;;47.80;30.00;;;;;;;;;;4417553;32;20232;-55
2021/01/02 10:46:32;;;;;;;51.03;29.83;;;;;;;;;;4417503;32;20464;-55
2021/01/02 10:48:57;;;;;;;45.87;29.00;;;;;;;;;;4417148;32;20283;-56
2021/01/02 10:51:23;;;;;;;47.20;27.27;;;;;;;;;;4417518;32;20413;-55
2021/01/02 10:53:48;;;;;;;43.50;26.27;;;;;;;;;;4407198;32;20590;-55
2021/01/02 10:56:17;;;;;;;41.13;23.93;;;;;;;;;;4402204;32;20358;-56
2021/01/02 10:58:43;;;;;;;47.13;26.30;;;;;;;;;;4401969;32;20240;-57
2021/01/02 11:01:08;;;;;;;47.07;25.83;;;;;;;;;;4402164;32;20293;-55
2021/01/02 11:03:35;;;;;;;47.83;27.03;;;;;;;;;;4402182;32;20673;-56
2021/01/02 11:06:06;;;;;;;38.70;23.37;;;;;;;;;;4402358;32;20228;-55
2021/01/02 11:08:36;;;;;;;56.97;32.37;;;;;;;;;;4401795;32;20276;-55
2021/01/02 11:11:03;;;;;;;47.47;29.30;;;;;;;;;;4400977;32;20264;-57
2021/01/02 11:13:28;;;;;;;52.10;29.37;;;;;;;;;;4401975;32;20333;-56
2021/01/02 11:15:54;;;;;;;39.50;23.43;;;;;;;;;;4401970;32;20318;-56
2021/01/02 11:18:19;;;;;;;37.70;23.43;;;;;;;;;;4401739;32;20331;-56
2021/01/02 11:20:48;;;;;;;47.30;26.70;;;;;;;;;;4401727;32;20301;-55
2021/01/02 11:23:18;;;;;;;44.33;27.97;;;;;;;;;;4401932;32;20205;-57
2021/01/02 11:25:44;;;;;;;45.37;25.03;;;;;;;;;;4402742;32;20198;-56
2021/01/02 11:28:10;;;;;;;37.63;24.70;;;;;;;;;;4403305;32;20820;-58
2021/01/02 11:30:35;;;;;;;46.20;27.17;;;;;;;;;;4403436;32;20233;-56
2021/01/02 11:33:01;;;;;;;55.00;29.33;;;;;;;;;;4404650;32;20789;-56
2021/01/02 11:35:26;;;;;;;76.93;44.20;;;;;;;;;;4404645;32;20279;-57
2021/01/02 11:37:52;;;;;;;55.30;34.50;;;;;;;;;;4403887;32;20800;-56
2021/01/02 11:40:18;;;;;;;61.20;39.93;;;;;;;;;;4405266;32;20241;-56
2021/01/02 11:42:45;;;;;;;63.50;41.80;;;;;;;;;;4404810;32;20700;-56
2021/01/02 11:45:20;;;;;;;79.87;46.37;;;;;;;;;;4404721;32;20244;-56
2021/01/02 11:47:46;;;;;;;82.90;46.63;;;;;;;;;;4403501;32;20221;-56
2021/01/02 11:50:12;;;;;;;81.63;43.40;;;;;;;;;;4404888;32;20218;-55
2021/01/02 11:52:38;;;;;;;72.13;45.40;;;;;;;;;;4392798;32;20542;-57
2021/01/02 11:55:05;;;;;;;69.60;44.60;;;;;;;;;;4419761;32;20220;-55
2021/01/02 11:57:31;;;;;;;69.40;44.17;;;;;;;;;;4419076;32;20236;-57
2021/01/02 11:59:56;;;;;;;76.70;45.57;;;;;;;;;;4420187;32;20217;-56
2021/01/02 12:02:22;;;;;;;67.53;41.20;;;;;;;;;;4420041;32;20287;-57
2021/01/02 12:04:47;;;;;;;78.47;48.37;;;;;;;;;;4419602;32;20385;-55
2021/01/02 12:07:13;;;;;;;73.90;46.60;;;;;;;;;;4419379;32;20276;-57
2021/01/02 12:09:39;;;;;;;77.57;47.27;;;;;;;;;;4419806;32;20302;-57
2021/01/02 12:12:06;;;;;;;84.07;50.10;;;;;;;;;;4419514;32;20352;-55
2021/01/02 12:14:33;;;;;;;71.10;45.53;;;;;;;;;;4419422;32;20243;-56
2021/01/02 12:17:02;;;;;;;86.20;52.17;;;;;;;;;;4419969;32;20234;-56
2021/01/02 12:19:30;;;;;;;72.70;45.60;;;;;;;;;;4419359;32;20595;-56
2021/01/02 12:22:00;;;;;;;84.90;48.93;;;;;;;;;;4418053;32;20658;-56
2021/01/02 12:24:27;;;;;;;78.97;47.27;;;;;;;;;;4419298;32;20274;-56
2021/01/02 12:26:56;;;;;;;72.63;40.63;;;;;;;;;;4418116;32;20233;-57
2021/01/02 12:29:24;;;;;;;75.80;43.90;;;;;;;;;;4419387;32;20221;-56
2021/01/02 12:31:52;;;;;;;73.63;43.87;;;;;;;;;;4419344;32;20208;-56
2021/01/02 12:34:20;;;;;;;74.37;43.27;;;;;;;;;;4419277;32;20225;-56
2021/01/02 12:36:46;;;;;;;84.37;50.03;;;;;;;;;;4418619;32;20243;-56
2021/01/02 12:39:15;;;;;;;82.47;48.77;;;;;;;;;;4418981;32;20233;-57
2021/01/02 12:41:41;;;;;;;94.00;58.60;;;;;;;;;;4419547;32;20219;-56
2021/01/02 12:44:07;;;;;;;211.80;96.20;;;;;;;;;;4419206;32;20548;-56
2021/01/02 12:46:41;;;;;;;247.13;119.50;;;;;;;;;;4419264;32;20268;-56
2021/01/02 12:49:08;;;;;;;222.63;115.73;;;;;;;;;;4418861;32;20220;-56
2021/01/02 12:51:33;;;;;;;131.73;76.00;;;;;;;;;;4419554;32;20694;-56
2021/01/02 12:53:59;;;;;;;94.20;57.43;;;;;;;;;;4407857;32;20331;-56
2021/01/02 12:56:25;;;;;;;125.20;68.47;;;;;;;;;;4403809;32;20330;-58
2021/01/02 12:58:50;;;;;;;86.83;50.17;;;;;;;;;;4403768;32;20218;-57
2021/01/02 13:01:16;;;;;;;71.93;45.60;;;;;;;;;;4403857;32;20276;-57
2021/01/02 13:03:42;;;;;;;73.20;45.17;;;;;;;;;;4403429;32;20335;-56
2021/01/02 13:06:11;;;;;;;77.40;44.13;;;;;;;;;;4404098;32;20295;-57
2021/01/02 13:08:37;;;;;;;85.73;51.93;;;;;;;;;;4403633;32;20288;-56
2021/01/02 13:11:05;;;;;;;108.70;60.77;;;;;;;;;;4403533;32;20406;-57
2021/01/02 13:13:30;;;;;;;108.20;63.27;;;;;;;;;;4403606;32;20242;-56
2021/01/02 13:15:56;;;;;;;103.67;57.87;;;;;;;;;;4402507;32;20214;-56
2021/01/02 13:18:21;;;;;;;99.37;57.60;;;;;;;;;;4403929;32;20340;-57
2021/01/02 13:20:47;;;;;;;100.90;59.53;;;;;;;;;;4403492;32;20271;-56
2021/01/02 13:23:12;;;;;;;95.43;58.33;;;;;;;;;;4403954;32;20689;-57
2021/01/02 13:25:38;;;;;;;96.87;58.63;;;;;;;;;;4403545;32;20194;-56
2021/01/02 13:28:03;;;;;;;100.80;58.97;;;;;;;;;;4402138;32;20328;-57
2021/01/02 13:30:29;;;;;;;99.67;58.80;;;;;;;;;;4403196;32;20253;-56
2021/01/02 13:32:56;;;;;;;107.10;63.43;;;;;;;;;;4403242;32;20760;-56
2021/01/02 13:35:21;;;;;;;108.93;63.67;;;;;;;;;;4403081;32;20233;-56
2021/01/02 13:37:47;;;;;;;106.97;67.97;;;;;;;;;;4401950;32;20292;-57
2021/01/02 13:40:12;;;;;;;124.70;75.73;;;;;;;;;;4401893;32;20225;-56
2021/01/02 13:42:38;;;;;;;129.30;78.87;;;;;;;;;;4403263;32;20280;-57
2021/01/02 13:45:06;;;;;;;127.20;77.17;;;;;;;;;;4402014;32;20280;-57
2021/01/02 13:47:32;;;;;;;131.20;78.67;;;;;;;;;;4403442;32;20237;-56
2021/01/02 13:49:57;;;;;;;136.73;80.57;;;;;;;;;;4402812;32;20213;-56
2021/01/02 13:52:23;;;;;;;106.70;66.83;;;;;;;;;;4403357;32;20366;-56
2021/01/02 13:54:49;;;;;;;111.70;66.73;;;;;;;;;;4416402;32;20343;-57
2021/01/02 13:57:14;;;;;;;112.73;71.63;;;;;;;;;;4418397;32;20296;-57
2021/01/02 13:59:40;;;;;;;147.43;75.33;;;;;;;;;;4417017;32;20327;-57
2021/01/02 14:02:06;;;;;;;136.87;80.27;;;;;;;;;;4418058;32;20659;-57
2021/01/02 14:04:31;;;;;;;137.20;80.57;;;;;;;;;;4418097;32;20378;-57
2021/01/02 14:06:57;;;;;;;141.63;87.57;;;;;;;;;;4418214;32;20318;-57
2021/01/02 14:09:24;;;;;;;170.10;97.17;;;;;;;;;;4418026;32;20273;-56
2021/01/02 14:11:53;;;;;;;167.70;100.20;;;;;;;;;;4418231;32;20656;-57
2021/01/02 14:14:18;;;;;;;160.23;94.50;;;;;;;;;;4417675;32;20209;-56
2021/01/02 14:16:52;;;;;;;145.50;85.70;;;;;;;;;;4417854;32;20717;-57
2021/01/02 14:19:19;;;;;;;137.47;82.27;;;;;;;;;;4417821;32;20319;-57
2021/01/02 14:21:46;;;;;;;119.83;73.93;;;;;;;;;;4416618;32;20308;-57
2021/01/02 14:24:12;;;;;;;124.23;78.90;;;;;;;;;;4416725;32;20358;-57
2021/01/02 14:26:37;;;;;;;130.37;82.87;;;;;;;;;;4417954;32;20272;-57